createdAt,value
2023-03-14T00:01:09.630Z,12.35
2023-03-14T00:03:36.041Z,10.55
2023-03-14T00:06:04.035Z,9.40
2023-03-14T00:08:30.488Z,10.17
2023-03-14T00:10:58.683Z,11.15
2023-03-14T00:13:25.688Z,12.57
2023-03-14T00:15:52.119Z,14.55
2023-03-14T00:18:20.829Z,10.90
2023-03-14T00:20:47.298Z,13.07
2023-03-14T00:23:13.712Z,8.68
2023-03-14T00:25:40.197Z,10.05
2023-03-14T00:28:06.607Z,6.30
2023-03-14T00:30:33.012Z,10.95
2023-03-14T00:32:59.448Z,10.27
2023-03-14T00:35:26.054Z,5.28
2023-03-14T00:37:52.450Z,6.15
2023-03-14T00:40:18.950Z,9.32
2023-03-14T00:42:45.390Z,7.30
2023-03-14T00:45:11.826Z,11.57
2023-03-14T00:47:38.647Z,5.88
2023-03-14T00:50:05.579Z,9.82
2023-03-14T00:52:32.050Z,8.40
2023-03-14T00:54:58.688Z,6.60
2023-03-14T00:57:25.179Z,7.53
2023-03-14T00:59:52.481Z,6.15
2023-03-14T01:02:18.972Z,6.32
2023-03-14T01:04:45.517Z,8.70
2023-03-14T01:07:11.972Z,8.05
2023-03-14T01:09:38.426Z,4.90
2023-03-14T01:12:05.186Z,6.97
2023-03-14T01:14:31.932Z,3.25
2023-03-14T01:17:01.707Z,5.97
2023-03-14T01:19:29.306Z,5.72
2023-03-14T01:21:55.795Z,4.53
2023-03-14T01:24:22.258Z,5.10
2023-03-14T01:26:48.699Z,3.03
2023-03-14T01:29:15.148Z,4.22
2023-03-14T01:31:41.598Z,5.32
2023-03-14T01:34:08.093Z,7.80
2023-03-14T01:36:34.581Z,3.38
2023-03-14T01:39:00.995Z,4.78
2023-03-14T01:41:28.132Z,4.93
2023-03-14T01:43:54.647Z,1.65
2023-03-14T01:46:27.139Z,2.33
2023-03-14T01:48:59.538Z,6.70
2023-03-14T01:51:41.776Z,6.38
2023-03-14T01:54:28.985Z,5.22
2023-03-14T01:57:05.834Z,3.78
2023-03-14T01:59:33.757Z,7.87
2023-03-14T02:02:00.387Z,5.60
2023-03-14T02:04:31.202Z,8.07
2023-03-14T02:07:05.121Z,6.45
2023-03-14T02:09:31.702Z,5.45
2023-03-14T02:11:59.291Z,6.30
2023-03-14T02:14:31.594Z,9.50
2023-03-14T02:16:58.975Z,5.43
2023-03-14T02:19:36.878Z,6.30
2023-03-14T02:22:14.823Z,4.78
2023-03-14T02:25:08.739Z,5.40
2023-03-14T02:27:35.950Z,5.13
2023-03-14T02:30:10.647Z,3.33
2023-03-14T02:32:40.356Z,6.53
2023-03-14T02:35:12.328Z,2.65
2023-03-14T02:37:51.845Z,3.57
2023-03-14T02:40:18.338Z,3.35
2023-03-14T02:42:44.802Z,4.85
2023-03-14T02:45:11.133Z,2.60
2023-03-14T02:47:43.156Z,4.75
2023-03-14T02:50:14.027Z,3.90
2023-03-14T02:52:40.477Z,3.97
2023-03-14T02:55:07.471Z,4.72
2023-03-14T02:57:33.864Z,3.40
2023-03-14T03:00:01.109Z,4.88
2023-03-14T03:02:30.669Z,5.30
2023-03-14T03:04:57.070Z,5.25
2023-03-14T03:07:23.504Z,5.63
2023-03-14T03:09:49.887Z,6.45
2023-03-14T03:12:16.311Z,6.10
2023-03-14T03:14:42.682Z,5.30
2023-03-14T03:17:09.210Z,8.07
2023-03-14T03:19:36.225Z,4.72
2023-03-14T03:22:02.658Z,2.92
2023-03-14T03:24:29.076Z,4.28
2023-03-14T03:26:55.853Z,2.33
2023-03-14T03:29:22.592Z,4.20
2023-03-14T03:31:48.973Z,5.68
2023-03-14T03:34:15.866Z,4.50
2023-03-14T03:36:43.243Z,5.70
2023-03-14T03:39:09.632Z,6.50
2023-03-14T03:41:36.085Z,2.58
2023-03-14T03:44:02.471Z,5.20
2023-03-14T03:46:28.868Z,4.05
2023-03-14T03:49:00.022Z,5.78
2023-03-14T03:51:26.802Z,4.73
2023-03-14T03:53:53.373Z,8.18
2023-03-14T03:56:19.797Z,6.20
2023-03-14T03:58:46.165Z,8.85
2023-03-14T04:01:12.677Z,3.35
2023-03-14T04:03:39.977Z,5.97
2023-03-14T04:06:12.947Z,4.88
2023-03-14T04:08:41.466Z,6.90
2023-03-14T04:11:08.236Z,3.40
2023-03-14T04:13:34.696Z,5.15
2023-03-14T04:16:01.203Z,7.60
2023-03-14T04:18:28.449Z,4.15
2023-03-14T04:20:56.750Z,6.35
2023-03-14T04:23:25.161Z,4.35
2023-03-14T04:25:53.042Z,6.57
2023-03-14T04:28:19.709Z,5.50
2023-03-14T04:30:46.168Z,5.47
2023-03-14T04:33:13.675Z,4.35
2023-03-14T04:35:40.174Z,6.90
2023-03-14T04:38:06.843Z,6.65
2023-03-14T04:40:33.313Z,8.97
2023-03-14T04:42:59.703Z,7.53
2023-03-14T04:45:26.069Z,7.18
2023-03-14T04:47:52.449Z,7.43
2023-03-14T04:50:19.116Z,7.47
2023-03-14T04:52:45.533Z,6.67
2023-03-14T04:55:11.994Z,4.38
2023-03-14T04:57:38.627Z,5.45
2023-03-14T05:00:08.856Z,5.85
2023-03-14T05:02:36.109Z,4.90
2023-03-14T05:05:02.764Z,9.47
2023-03-14T05:07:29.201Z,4.75
2023-03-14T05:09:55.627Z,7.15
2023-03-14T05:12:22.122Z,6.88
2023-03-14T05:14:48.527Z,3.45
2023-03-14T05:17:15.511Z,5.70
2023-03-14T05:19:42.575Z,4.80
2023-03-14T05:22:09.019Z,10.75
2023-03-14T05:24:35.514Z,2.83
2023-03-14T05:27:01.936Z,2.40
2023-03-14T05:29:28.428Z,4.67
2023-03-14T05:31:54.871Z,5.85
2023-03-14T05:34:21.882Z,5.72
2023-03-14T05:36:48.416Z,4.95
2023-03-14T05:39:14.793Z,5.00
2023-03-14T05:41:41.246Z,4.07
2023-03-14T05:44:07.631Z,5.20
2023-03-14T05:46:34.076Z,2.47
2023-03-14T05:49:01.073Z,2.65
2023-03-14T05:51:27.824Z,2.65
2023-03-14T05:53:54.208Z,2.70
2023-03-14T05:56:20.567Z,4.30
2023-03-14T05:58:47.019Z,3.13
2023-03-14T06:01:13.511Z,4.47
2023-03-14T06:03:40.088Z,5.57
2023-03-14T06:06:06.937Z,3.70
2023-03-14T06:08:33.392Z,5.82
2023-03-14T06:10:59.891Z,4.97
2023-03-14T06:13:26.339Z,5.03
2023-03-14T06:15:52.871Z,3.13
2023-03-14T06:18:19.360Z,5.07
2023-03-14T06:20:45.973Z,5.18
2023-03-14T06:23:12.581Z,3.50
2023-03-14T06:25:39.270Z,4.30
2023-03-14T06:28:05.689Z,4.80
2023-03-14T06:30:32.220Z,7.77
2023-03-14T06:32:58.741Z,4.00
2023-03-14T06:35:25.330Z,9.02
2023-03-14T06:37:52.208Z,5.47
2023-03-14T06:40:19.272Z,6.60
2023-03-14T06:42:46.340Z,3.10
2023-03-14T06:45:12.946Z,3.97
2023-03-14T06:47:39.506Z,2.63
2023-03-14T06:50:11.087Z,3.83
2023-03-14T06:52:38.183Z,1.20
2023-03-14T06:55:04.938Z,2.97
2023-03-14T06:57:31.406Z,0.50
2023-03-14T06:59:57.853Z,2.58
2023-03-14T07:02:35.965Z,0.80
2023-03-14T07:05:06.939Z,0.45
2023-03-14T07:07:33.672Z,1.17
2023-03-14T07:10:00.111Z,0.82
2023-03-14T07:12:26.541Z,1.83
2023-03-14T07:14:53.014Z,0.38
2023-03-14T07:17:19.485Z,0.65
2023-03-14T07:19:45.928Z,0.63
2023-03-14T07:22:12.359Z,1.75
2023-03-14T07:24:38.786Z,2.33
2023-03-14T07:27:05.253Z,1.05
2023-03-14T07:29:31.683Z,0.85
2023-03-14T07:31:58.426Z,0.97
2023-03-14T07:34:24.865Z,1.00
2023-03-14T07:36:51.358Z,2.05
2023-03-14T07:39:17.788Z,0.50
2023-03-14T07:41:44.190Z,1.80
2023-03-14T07:44:10.637Z,2.97
2023-03-14T07:46:37.069Z,0.47
2023-03-14T07:49:03.542Z,0.95
2023-03-14T07:51:29.984Z,1.23
2023-03-14T07:53:56.414Z,1.23
2023-03-14T07:56:22.950Z,2.30
2023-03-14T07:58:49.442Z,1.70
2023-03-14T08:01:16.004Z,0.50
2023-03-14T08:03:42.510Z,2.17
2023-03-14T08:06:09.023Z,1.05
2023-03-14T08:08:35.877Z,3.63
2023-03-14T08:11:07.191Z,2.28
2023-03-14T08:13:33.676Z,2.72
2023-03-14T08:16:00.163Z,2.65
2023-03-14T08:18:26.703Z,2.45
2023-03-14T08:20:53.123Z,4.33
2023-03-14T08:23:19.697Z,3.70
2023-03-14T08:25:46.327Z,0.52
2023-03-14T08:28:13.904Z,2.58
2023-03-14T08:30:40.354Z,3.90
2023-03-14T08:33:06.890Z,3.03
2023-03-14T08:35:33.408Z,1.40
2023-03-14T08:37:59.809Z,7.03
2023-03-14T08:40:26.208Z,2.05
2023-03-14T08:42:52.619Z,2.30
2023-03-14T08:45:19.229Z,4.20
2023-03-14T08:47:46.354Z,1.40
2023-03-14T08:50:16.248Z,1.95
2023-03-14T08:52:43.238Z,1.17
2023-03-14T08:55:10.163Z,1.52
2023-03-14T08:57:37.316Z,2.93
2023-03-14T09:00:14.313Z,4.22
2023-03-14T09:02:41.125Z,2.08
2023-03-14T09:05:08.541Z,3.88
2023-03-14T09:07:35.039Z,4.53
2023-03-14T09:10:01.485Z,4.00
2023-03-14T09:12:28.016Z,2.65
2023-03-14T09:14:54.677Z,4.85
2023-03-14T09:17:21.100Z,6.10
2023-03-14T09:19:47.481Z,2.25
2023-03-14T09:22:13.912Z,5.13
2023-03-14T09:24:41.688Z,6.07
2023-03-14T09:27:08.769Z,4.88
2023-03-14T09:29:35.579Z,6.20
2023-03-14T09:32:02.058Z,5.60
2023-03-14T09:34:28.506Z,10.13
2023-03-14T09:36:55.209Z,5.45
2023-03-14T09:39:21.578Z,4.22
2023-03-14T09:41:51.605Z,5.03
2023-03-14T09:44:26.415Z,5.40
2023-03-14T09:46:55.501Z,5.80
2023-03-14T09:49:29.830Z,4.63
2023-03-14T09:51:58.871Z,6.75
2023-03-14T09:54:53.026Z,7.45
2023-03-14T09:57:22.728Z,7.35
2023-03-14T09:59:51.219Z,9.90
2023-03-14T10:02:23.295Z,9.18
2023-03-14T10:04:52.618Z,6.10
2023-03-14T10:07:26.346Z,9.07
2023-03-14T10:09:52.829Z,8.57
2023-03-14T10:12:20.227Z,18.90
2023-03-14T10:14:54.630Z,9.32
2023-03-14T10:17:21.562Z,8.80
2023-03-14T10:19:58.129Z,10.13
2023-03-14T10:22:29.809Z,10.25
2023-03-14T10:25:00.234Z,6.40
2023-03-14T10:30:05.897Z,7.32
2023-03-14T10:32:38.795Z,8.98
2023-03-14T10:35:10.110Z,12.25
2023-03-14T10:37:36.819Z,4.87
2023-03-14T10:40:06.708Z,9.65
2023-03-14T10:42:39.771Z,11.00
2023-03-14T10:45:23.194Z,9.25
2023-03-14T10:47:51.378Z,12.07
2023-03-14T10:50:32.191Z,7.63
2023-03-14T10:53:06.299Z,7.80
2023-03-14T10:55:43.934Z,14.25
2023-03-14T10:58:32.629Z,15.07
2023-03-14T11:01:18.121Z,13.00
2023-03-14T11:03:53.336Z,15.33
2023-03-14T11:06:32.680Z,10.10
2023-03-14T11:09:21.995Z,8.15
2023-03-14T11:11:49.150Z,8.00
2023-03-14T11:14:42.304Z,6.47
2023-03-14T11:17:17.036Z,10.50
2023-03-14T11:19:52.315Z,9.10
2023-03-14T11:22:42.062Z,15.68
2023-03-14T11:25:22.251Z,6.68
2023-03-14T11:28:27.283Z,13.13
2023-03-14T11:30:56.381Z,7.77
2023-03-14T11:33:28.352Z,7.50
2023-03-14T11:36:10.137Z,9.90
2023-03-14T11:38:51.586Z,6.45
2023-03-14T11:41:26.288Z,4.22
2023-03-14T11:43:58.080Z,7.90
2023-03-14T11:46:28.042Z,8.00
2023-03-14T11:49:09.802Z,7.63
2023-03-14T11:51:46.960Z,7.60
2023-03-14T11:54:47.706Z,7.75
2023-03-14T11:57:18.382Z,10.10
2023-03-14T11:59:57.415Z,5.78
2023-03-14T12:02:32.694Z,6.55
2023-03-14T12:05:36.527Z,5.35
2023-03-14T12:08:12.050Z,9.18
2023-03-14T12:10:51.028Z,6.73
2023-03-14T12:13:18.732Z,6.97
2023-03-14T12:15:59.913Z,5.47
2023-03-14T12:18:35.712Z,5.20
2023-03-14T12:21:05.612Z,6.45
2023-03-14T12:23:44.430Z,11.97
2023-03-14T12:26:13.567Z,6.82
2023-03-14T12:28:44.580Z,6.75
2023-03-14T12:31:30.094Z,3.25
2023-03-14T12:34:05.120Z,8.35
2023-03-14T12:36:50.414Z,5.97
2023-03-14T12:39:38.410Z,5.43
2023-03-14T12:42:43.937Z,3.63
2023-03-14T12:45:25.271Z,5.80
2023-03-14T12:48:11.798Z,6.40
2023-03-14T12:50:45.921Z,4.67
2023-03-14T12:53:31.574Z,4.22
2023-03-14T12:56:22.414Z,7.00
2023-03-14T12:59:05.874Z,6.68
2023-03-14T13:01:34.792Z,4.00
2023-03-14T13:04:10.172Z,5.50
2023-03-14T13:07:00.571Z,3.92
2023-03-14T13:09:26.965Z,2.92
2023-03-14T13:12:01.307Z,3.72
2023-03-14T13:14:30.118Z,3.70
2023-03-14T13:17:10.447Z,5.03
2023-03-14T13:19:53.410Z,4.32
2023-03-14T13:22:32.864Z,8.10
2023-03-14T13:25:08.367Z,2.90
2023-03-14T13:27:36.168Z,5.78
2023-03-14T13:30:15.807Z,4.60
2023-03-14T13:32:45.320Z,3.30
2023-03-14T13:35:29.495Z,4.00
2023-03-14T13:38:10.749Z,2.40
2023-03-14T13:40:38.745Z,5.40
2023-03-14T13:43:14.299Z,5.30
2023-03-14T13:45:51.566Z,7.03
2023-03-14T13:48:19.337Z,2.97
2023-03-14T13:50:55.177Z,2.65
2023-03-14T13:53:22.089Z,3.25
2023-03-14T13:55:48.642Z,2.47
2023-03-14T13:58:37.810Z,5.13
2023-03-14T14:01:18.108Z,3.63
2023-03-14T14:03:52.075Z,5.53
2023-03-14T14:06:24.592Z,4.20
2023-03-14T14:08:51.417Z,6.17
2023-03-14T14:11:44.939Z,6.65
2023-03-14T14:14:28.250Z,4.80
2023-03-14T14:16:55.925Z,4.78
2023-03-14T14:19:26.152Z,4.10
2023-03-14T14:21:53.089Z,4.17
2023-03-14T14:24:23.585Z,3.33
2023-03-14T14:27:01.275Z,5.13
2023-03-14T14:29:33.528Z,3.30
2023-03-14T14:32:09.370Z,4.38
2023-03-14T14:34:52.616Z,7.27
2023-03-14T14:37:27.578Z,5.10
2023-03-14T14:39:58.490Z,4.38
2023-03-14T14:42:32.516Z,5.65
2023-03-14T14:44:59.884Z,4.32
2023-03-14T14:47:28.846Z,4.73
2023-03-14T14:49:59.586Z,2.38
2023-03-14T14:52:42.101Z,2.28
2023-03-14T14:55:21.999Z,3.10
2023-03-14T14:57:54.560Z,2.67
2023-03-14T15:00:24.080Z,2.20
2023-03-14T15:02:55.292Z,3.83
2023-03-14T15:05:28.056Z,2.53
2023-03-14T15:07:54.786Z,3.08
2023-03-14T15:10:24.000Z,3.60
2023-03-14T15:12:50.671Z,4.57
2023-03-14T15:15:18.519Z,2.22
2023-03-14T15:17:45.457Z,4.03
2023-03-14T15:20:14.831Z,2.45
2023-03-14T15:22:41.836Z,2.20
2023-03-14T15:25:12.970Z,3.67
2023-03-14T15:27:45.176Z,1.77
2023-03-14T15:30:16.564Z,4.78
2023-03-14T15:32:43.070Z,4.32
2023-03-14T15:35:10.475Z,5.30
2023-03-14T15:37:36.959Z,2.37
2023-03-14T15:40:12.715Z,2.95
2023-03-14T15:42:39.307Z,3.10
2023-03-14T15:45:06.414Z,4.85
2023-03-14T15:47:33.199Z,6.25
2023-03-14T15:49:59.838Z,2.37
2023-03-14T15:52:26.317Z,3.20
2023-03-14T15:54:52.780Z,5.03
2023-03-14T15:57:19.215Z,1.73
2023-03-14T15:59:45.758Z,3.15
2023-03-14T16:02:12.450Z,5.17
2023-03-14T16:04:38.859Z,4.82
2023-03-14T16:07:05.306Z,2.70
2023-03-14T16:09:32.170Z,5.72
2023-03-14T16:11:58.863Z,4.93
2023-03-14T16:14:25.362Z,4.83
2023-03-14T16:16:53.101Z,3.22
2023-03-14T16:19:19.527Z,2.97
2023-03-14T16:21:46.283Z,2.97
2023-03-14T16:24:12.686Z,4.05
2023-03-14T16:26:39.122Z,3.57
2023-03-14T16:29:05.655Z,5.70
2023-03-14T16:31:32.128Z,2.47
2023-03-14T16:34:03.516Z,3.35
2023-03-14T16:36:30.003Z,4.57
2023-03-14T16:38:56.510Z,6.87
2023-03-14T16:41:23.255Z,4.10
2023-03-14T16:43:52.273Z,7.35
2023-03-14T16:46:19.831Z,3.63
2023-03-14T16:48:46.470Z,4.20
2023-03-14T16:51:14.202Z,4.20
2023-03-14T16:53:40.857Z,3.63
2023-03-14T16:56:08.313Z,7.40
2023-03-14T16:58:35.447Z,3.17
2023-03-14T17:01:10.130Z,2.78
2023-03-14T17:03:39.115Z,3.73
2023-03-14T17:06:05.896Z,4.53
2023-03-14T17:08:32.377Z,9.85
2023-03-14T17:10:59.039Z,4.03
2023-03-14T17:13:25.911Z,2.72
2023-03-14T17:15:56.729Z,1.80
2023-03-14T17:18:24.538Z,2.70
2023-03-14T17:20:51.965Z,2.60
2023-03-14T17:23:18.791Z,2.83
2023-03-14T17:25:50.301Z,3.88
2023-03-14T17:28:17.614Z,2.73
2023-03-14T17:30:44.629Z,2.30
2023-03-14T17:33:11.631Z,5.20
2023-03-14T17:35:38.550Z,3.20
2023-03-14T17:38:05.342Z,2.72
2023-03-14T17:40:32.433Z,4.73
2023-03-14T17:42:58.826Z,4.10
2023-03-14T17:45:25.272Z,8.98
2023-03-14T17:47:51.807Z,5.90
2023-03-14T17:50:18.420Z,3.03
2023-03-14T17:52:44.872Z,3.97
2023-03-14T17:55:12.069Z,7.55
2023-03-14T17:57:40.238Z,2.47
2023-03-14T18:00:11.221Z,4.75
2023-03-14T18:02:37.762Z,5.55
2023-03-14T18:05:04.589Z,4.40
2023-03-14T18:07:34.887Z,4.95
2023-03-14T18:10:02.024Z,2.78
2023-03-14T18:12:28.895Z,2.95
2023-03-14T18:14:55.361Z,3.55
2023-03-14T18:17:21.824Z,3.33
2023-03-14T18:19:48.410Z,4.97
2023-03-14T18:22:15.964Z,6.13
2023-03-14T18:24:42.481Z,0.93
2023-03-14T18:27:09.103Z,6.82
2023-03-14T18:29:36.816Z,8.87
2023-03-14T18:32:03.283Z,2.75
2023-03-14T18:34:29.813Z,4.40
2023-03-14T18:36:56.204Z,4.57
2023-03-14T18:39:22.650Z,4.05
2023-03-14T18:41:49.032Z,6.43
2023-03-14T18:44:15.534Z,4.68
2023-03-14T18:46:42.499Z,4.93
2023-03-14T18:49:10.776Z,3.50
2023-03-14T18:51:37.183Z,2.90
2023-03-14T18:54:09.831Z,3.60
2023-03-14T18:56:39.153Z,2.17
2023-03-14T18:59:05.858Z,5.45
2023-03-14T19:01:34.133Z,1.90
2023-03-14T19:04:01.411Z,3.30
2023-03-14T19:06:28.691Z,5.27
2023-03-14T19:08:55.165Z,3.40
2023-03-14T19:11:21.667Z,4.65
2023-03-14T19:13:48.206Z,6.47
2023-03-14T19:16:15.773Z,4.05
2023-03-14T19:18:42.663Z,5.07
2023-03-14T19:21:12.371Z,4.78
2023-03-14T19:23:42.371Z,2.80
2023-03-14T19:26:09.885Z,3.47
2023-03-14T19:28:36.763Z,4.07
2023-03-14T19:31:04.843Z,6.27
2023-03-14T19:33:31.888Z,3.65
2023-03-14T19:35:58.739Z,4.97
2023-03-14T19:38:25.209Z,4.32
2023-03-14T19:40:57.736Z,3.15
2023-03-14T19:43:24.556Z,5.97
2023-03-14T19:45:51.108Z,3.90
2023-03-14T19:48:18.294Z,3.00
2023-03-14T19:50:44.819Z,1.73
2023-03-14T19:53:11.413Z,4.25
2023-03-14T19:55:38.162Z,3.13
2023-03-14T19:58:05.324Z,3.05
2023-03-14T20:00:32.017Z,4.65
2023-03-14T20:02:58.818Z,3.00
2023-03-14T20:05:25.330Z,5.28
2023-03-14T20:07:51.952Z,5.40
2023-03-14T20:10:22.687Z,4.93
2023-03-14T20:12:50.992Z,4.45
2023-03-14T20:15:19.645Z,5.68
2023-03-14T20:17:47.061Z,5.20
2023-03-14T20:20:13.815Z,7.13
2023-03-14T20:22:40.787Z,8.52
2023-03-14T20:25:12.937Z,4.80
2023-03-14T20:27:41.350Z,2.92
2023-03-14T20:30:12.697Z,3.88
2023-03-14T20:32:40.869Z,2.97
2023-03-14T20:35:09.568Z,5.32
2023-03-14T20:37:35.931Z,2.20
2023-03-14T20:40:02.587Z,5.78
2023-03-14T20:42:29.013Z,5.22
2023-03-14T20:44:55.499Z,5.07
2023-03-14T20:47:21.916Z,3.47
2023-03-14T20:49:48.406Z,4.95
2023-03-14T20:52:15.458Z,3.85
2023-03-14T20:54:41.834Z,8.10
2023-03-14T20:57:08.731Z,4.00
2023-03-14T20:59:35.210Z,5.03
2023-03-14T21:02:01.848Z,8.38
2023-03-14T21:04:28.525Z,7.95
2023-03-14T21:06:55.110Z,8.32
2023-03-14T21:09:27.140Z,5.00
2023-03-14T21:11:53.779Z,7.80
2023-03-14T21:14:22.367Z,2.58
2023-03-14T21:16:50.034Z,10.82
2023-03-14T21:19:16.787Z,2.65
2023-03-14T21:21:43.177Z,8.03
2023-03-14T21:24:09.559Z,5.45
2023-03-14T21:26:36.012Z,3.85
2023-03-14T21:29:03.074Z,2.30
2023-03-14T21:31:30.809Z,5.60
2023-03-14T21:33:57.668Z,4.87
2023-03-14T21:36:24.117Z,5.80
2023-03-14T21:38:50.668Z,3.00
2023-03-14T21:41:17.094Z,4.68
2023-03-14T21:43:45.681Z,6.05
2023-03-14T21:46:12.943Z,1.90
2023-03-14T21:48:39.371Z,4.28
2023-03-14T21:51:06.811Z,1.08
2023-03-14T21:53:34.803Z,3.13
2023-03-14T21:56:01.864Z,1.42
2023-03-14T21:58:28.411Z,4.47
2023-03-14T22:01:01.631Z,2.17
2023-03-14T22:03:28.767Z,2.17
2023-03-14T22:05:55.177Z,2.70
2023-03-14T22:08:22.595Z,3.10
2023-03-14T22:10:53.607Z,2.23
2023-03-14T22:13:22.727Z,2.17
2023-03-14T22:15:50.047Z,3.33
2023-03-14T22:18:18.000Z,1.05
2023-03-14T22:20:45.208Z,1.33
2023-03-14T22:23:12.684Z,2.37
2023-03-14T22:25:43.894Z,2.38
2023-03-14T22:28:10.831Z,2.13
2023-03-14T22:30:37.375Z,4.22
2023-03-14T22:33:04.196Z,3.17
2023-03-14T22:35:30.568Z,1.80
2023-03-14T22:37:57.272Z,0.82
2023-03-14T22:40:23.860Z,0.70
2023-03-14T22:42:53.655Z,0.88
2023-03-14T22:45:20.804Z,0.47
2023-03-14T22:47:47.348Z,1.73
2023-03-14T22:50:13.846Z,0.50
2023-03-14T22:52:42.739Z,0.60
2023-03-14T22:55:09.754Z,0.20
2023-03-14T22:57:37.187Z,0.47
2023-03-14T23:00:08.069Z,0.10
2023-03-14T23:02:34.441Z,0.60
2023-03-14T23:05:00.899Z,0.60
2023-03-14T23:07:27.291Z,1.17
2023-03-14T23:09:53.667Z,1.10
2023-03-14T23:12:21.587Z,1.03
2023-03-14T23:14:48.243Z,1.02
2023-03-14T23:17:14.690Z,0.30
2023-03-14T23:19:41.123Z,0.25
2023-03-14T23:22:09.646Z,1.67
2023-03-14T23:24:36.323Z,0.73
2023-03-14T23:27:03.327Z,1.40
2023-03-14T23:29:29.708Z,1.15
2023-03-14T23:31:56.125Z,0.30
2023-03-14T23:34:25.169Z,0.55
2023-03-14T23:36:51.702Z,1.30
2023-03-14T23:39:18.127Z,0.60
2023-03-14T23:41:44.799Z,0.35
2023-03-14T23:44:13.206Z,0.13
2023-03-14T23:46:40.011Z,0.35
2023-03-14T23:49:06.516Z,0.00
2023-03-14T23:51:32.906Z,0.30
2023-03-14T23:53:59.401Z,0.08
2023-03-14T23:56:25.819Z,0.20
2023-03-14T23:58:52.219Z,0.10
